Time;durP1;ratioP1;P1;durP2;ratioP2;P2;SDS_P1;SDS_P2;PMS_P1;PMS_P2;Temp;Humidity;BMP_temperature;BMP_pressure;BME280_temperature;BME280_humidity;BME280_pressure;Samples;Min_cycle;Max_cycle;Signal;HPM_P1;HPM_P2
2022/08/08 00:01:31;;;;;;;1.20;1.07;;;16.20;57.50;;;;;;5075253;28;20657;-81
2022/08/08 00:04:10;;;;;;;0.57;0.57;;;16.10;56.50;;;;;;5071748;28;20683;-81
2022/08/08 00:06:46;;;;;;;1.07;0.97;;;16.00;56.70;;;;;;5071922;28;21270;-82
2022/08/08 00:09:21;;;;;;;0.90;0.90;;;16.10;56.70;;;;;;5075141;28;20644;-81
2022/08/08 00:11:57;;;;;;;0.70;0.70;;;16.30;59.00;;;;;;5080285;28;20621;-81
2022/08/08 00:14:34;;;;;;;2.80;1.00;;;16.10;57.90;;;;;;5075882;28;20631;-82
2022/08/08 00:17:08;;;;;;;0.80;0.80;;;16.00;57.90;;;;;;5075513;28;20635;-82
2022/08/08 00:19:44;;;;;;;1.00;1.00;;;16.00;57.50;;;;;;5092024;28;20619;-82
2022/08/08 00:22:20;;;;;;;0.80;0.80;;;15.90;57.70;;;;;;5082624;28;20621;-82
2022/08/08 00:24:52;;;;;;;1.03;1.03;;;16.10;58.50;;;;;;5075724;28;20649;-82
2022/08/08 00:27:22;;;;;;;0.70;0.70;;;15.80;58.60;;;;;;5091838;28;20660;-82
2022/08/08 00:29:56;;;;;;;0.80;0.80;;;15.90;58.70;;;;;;5077537;28;21887;-82
2022/08/08 00:32:28;;;;;;;0.70;0.70;;;15.70;58.70;;;;;;5085265;28;20623;-81
2022/08/08 00:35:25;;;;;;;1.77;1.50;;;15.90;57.60;;;;;;5085439;28;20633;-82
2022/08/08 00:38:17;;;;;;;0.83;0.83;;;15.90;58.10;;;;;;5091762;28;20696;-81
2022/08/08 00:41:22;;;;;;;0.80;0.80;;;16.00;58.40;;;;;;5087112;28;20624;-82
2022/08/08 00:44:11;;;;;;;0.90;0.90;;;15.80;63.40;;;;;;5071351;28;21268;-82
2022/08/08 00:47:12;;;;;;;0.53;0.53;;;15.90;59.60;;;;;;5072411;28;20703;-82
2022/08/08 00:50:19;;;;;;;0.70;0.70;;;15.80;58.60;;;;;;5090989;28;21227;-82
2022/08/08 00:52:57;;;;;;;1.20;1.10;;;15.90;62.00;;;;;;5087304;28;20857;-82
2022/08/08 00:56:08;;;;;;;1.10;1.00;;;16.00;57.60;;;;;;5080832;28;20629;-82
2022/08/08 00:59:02;;;;;;;1.30;1.07;;;16.00;57.20;;;;;;5082588;28;21289;-82
2022/08/08 01:01:35;;;;;;;0.80;0.80;;;16.10;59.20;;;;;;5087633;28;20624;-81
2022/08/08 01:04:26;;;;;;;0.90;0.80;;;15.90;58.50;;;;;;5073977;28;21136;-82
2022/08/08 01:07:27;;;;;;;1.00;0.90;;;16.10;56.90;;;;;;5089663;28;20669;-82
2022/08/08 01:10:25;;;;;;;1.43;0.90;;;16.10;58.00;;;;;;5081823;28;21257;-81
2022/08/08 01:13:32;;;;;;;1.10;1.00;;;16.10;56.80;;;;;;5073529;28;20622;-81
2022/08/08 01:16:45;;;;;;;0.73;0.63;;;16.00;57.00;;;;;;5073334;28;20945;-82
2022/08/08 01:19:55;;;;;;;0.83;0.77;;;15.80;56.80;;;;;;5073615;28;20621;-82
2022/08/08 01:23:03;;;;;;;0.87;0.87;;;15.70;56.00;;;;;;5074525;28;21326;-82
2022/08/08 01:26:04;;;;;;;1.03;0.93;;;15.70;56.10;;;;;;5082967;28;21041;-81
2022/08/08 01:29:00;;;;;;;1.53;0.80;;;15.80;58.60;;;;;;5071821;28;20985;-82
2022/08/08 01:32:16;;;;;;;1.10;1.00;;;15.60;57.80;;;;;;5075642;28;21189;-81
2022/08/08 01:35:23;;;;;;;1.20;1.10;;;15.70;57.90;;;;;;5040435;28;20658;-82
2022/08/08 01:38:14;;;;;;;1.40;0.80;;;15.60;58.00;;;;;;5076683;28;20632;-81
2022/08/08 01:40:49;;;;;;;0.90;0.90;;;15.50;61.30;;;;;;5089460;28;20624;-82
2022/08/08 01:43:32;;;;;;;0.70;0.70;;;15.40;60.00;;;;;;5093349;28;20616;-80
2022/08/08 01:46:12;;;;;;;1.10;1.03;;;15.30;63.80;;;;;;5080341;28;20683;-81
2022/08/08 01:48:53;;;;;;;1.30;1.20;;;15.40;59.90;;;;;;5072797;28;20637;-82
2022/08/08 01:51:50;;;;;;;0.87;0.77;;;15.30;59.20;;;;;;5070666;28;20621;-81
2022/08/08 01:54:27;;;;;;;0.67;0.67;;;15.50;61.20;;;;;;5070732;28;21224;-81
2022/08/08 01:57:09;;;;;;;0.80;0.80;;;15.10;61.30;;;;;;5071337;28;20608;-82
2022/08/08 02:00:02;;;;;;;1.23;1.00;;;15.30;59.70;;;;;;5071371;28;20609;-81
2022/08/08 02:02:40;;;;;;;0.90;0.90;;;15.10;62.40;;;;;;5079035;28;21191;-82
2022/08/08 02:05:20;;;;;;;0.90;0.90;;;15.30;59.30;;;;;;5072443;28;20624;-81
2022/08/08 02:08:00;;;;;;;1.07;0.97;;;15.20;59.40;;;;;;5072172;28;20675;-82
2022/08/08 02:10:54;;;;;;;2.60;1.07;;;15.10;58.60;;;;;;5087407;28;20940;-82
2022/08/08 02:13:27;;;;;;;1.60;1.50;;;15.10;58.60;;;;;;5085185;28;20666;-81
2022/08/08 02:16:06;;;;;;;2.40;1.33;;;14.80;60.40;;;;;;5090026;28;20686;-82
2022/08/08 02:18:46;;;;;;;1.07;1.07;;;15.00;58.50;;;;;;5090948;28;20967;-82
2022/08/08 02:24:13;;;;;;;0.63;0.63;;;15.20;62.70;;;;;;5082537;28;20633;-81
2022/08/08 02:26:50;;;;;;;1.30;1.23;;;15.10;60.40;;;;;;5073372;28;20673;-82
2022/08/08 02:29:34;;;;;;;1.20;1.10;;;15.00;59.80;;;;;;5072378;28;20613;-82
2022/08/08 02:32:40;;;;;;;1.20;1.10;;;14.70;63.90;;;;;;5085493;28;20685;-81
2022/08/08 02:35:37;;;;;;;0.97;0.90;;;14.90;62.00;;;;;;5074685;28;20953;-81
2022/08/08 02:38:49;;;;;;;1.40;1.27;;;14.90;63.80;;;;;;5083157;28;21139;-82
2022/08/08 02:41:50;;;;;;;0.83;0.83;;;14.80;61.60;;;;;;5061886;28;20709;-81
2022/08/08 02:44:57;;;;;;;0.87;0.87;;;14.70;62.60;;;;;;5072963;28;20655;-82
2022/08/08 02:48:00;;;;;;;1.00;1.00;;;14.80;62.50;;;;;;5089791;28;20660;-82
2022/08/08 02:50:57;;;;;;;1.33;1.00;;;14.80;63.10;;;;;;5072463;28;20664;-81
2022/08/08 02:53:42;;;;;;;1.00;0.90;;;14.60;64.20;;;;;;5070811;28;21107;-82
2022/08/08 02:56:42;;;;;;;0.70;0.70;;;14.80;62.70;;;;;;5070483;28;20643;-81
2022/08/08 02:59:46;;;;;;;1.07;1.07;;;14.80;62.40;;;;;;5071542;28;20641;-82
2022/08/08 03:02:49;;;;;;;1.30;1.20;;;14.80;63.80;;;;;;5072121;28;20637;-82
2022/08/08 03:05:41;;;;;;;2.00;0.90;;;14.60;63.90;;;;;;5072629;28;20648;-82
2022/08/08 03:08:58;;;;;;;1.00;1.00;;;14.30;65.20;;;;;;5077476;28;20664;-80
2022/08/08 03:12:08;;;;;;;1.37;1.27;;;14.50;63.90;;;;;;5093159;28;20632;-82
2022/08/08 03:15:07;;;;;;;0.70;0.70;;;14.50;63.40;;;;;;5076510;28;20653;-81
2022/08/08 03:17:41;;;;;;;1.73;1.13;;;14.90;63.60;;;;;;5067494;28;20652;-81
2022/08/08 03:20:10;;;;;;;1.33;1.23;;;14.50;62.70;;;;;;5082592;28;20622;-81
2022/08/08 03:22:47;;;;;;;1.03;1.00;;;14.10;62.10;;;;;;5075881;28;20622;-82
2022/08/08 03:25:17;;;;;;;0.93;0.93;;;14.50;63.10;;;;;;5077296;28;20656;-81
2022/08/08 03:27:49;;;;;;;1.43;1.33;;;14.50;63.10;;;;;;5075452;28;20755;-81
2022/08/08 03:30:19;;;;;;;0.97;0.83;;;14.40;62.50;;;;;;5076021;28;20628;-81
2022/08/08 03:35:31;;;;;;;0.80;0.80;;;14.40;63.00;;;;;;5086468;28;20621;-81
2022/08/08 03:38:01;;;;;;;1.00;0.90;;;14.50;65.70;;;;;;5074936;28;20622;-81
2022/08/08 03:40:28;;;;;;;1.60;1.50;;;14.30;65.50;;;;;;5086524;28;20629;-81
2022/08/08 03:42:57;;;;;;;1.27;1.17;;;14.40;64.50;;;;;;5088744;28;21026;-82
2022/08/08 03:45:25;;;;;;;0.67;0.67;;;14.40;64.60;;;;;;5081530;28;20706;-81
2022/08/08 03:47:57;;;;;;;0.63;0.63;;;14.20;64.50;;;;;;5092262;28;20721;-81
2022/08/08 03:50:25;;;;;;;1.20;1.10;;;14.20;64.70;;;;;;5090473;28;21119;-81
2022/08/08 03:52:52;;;;;;;1.10;0.97;;;14.10;63.80;;;;;;5088736;28;21187;-81
2022/08/08 03:55:22;;;;;;;1.10;0.90;;;14.10;63.50;;;;;;5086174;28;20735;-82
2022/08/08 03:57:50;;;;;;;1.10;1.10;;;14.20;64.10;;;;;;5088146;28;21236;-81
2022/08/08 04:00:19;;;;;;;1.83;1.10;;;14.10;66.00;;;;;;5081928;28;20613;-81
2022/08/08 04:02:55;;;;;;;1.90;1.60;;;14.10;66.30;;;;;;5075056;28;20664;-80
2022/08/08 04:05:25;;;;;;;0.93;0.93;;;14.10;66.40;;;;;;5077810;28;21002;-82
2022/08/08 04:07:52;;;;;;;3.37;1.37;;;14.00;66.80;;;;;;5087349;28;20688;-82
2022/08/08 04:10:23;;;;;;;0.80;0.80;;;14.00;67.90;;;;;;5089539;28;20634;-82
2022/08/08 04:12:50;;;;;;;3.43;1.20;;;13.90;67.20;;;;;;5075833;28;20605;-81
2022/08/08 04:15:17;;;;;;;1.17;1.10;;;14.00;67.20;;;;;;5085959;28;20621;-81
2022/08/08 04:17:44;;;;;;;1.40;1.30;;;14.10;66.50;;;;;;5094289;28;20627;-81
2022/08/08 04:20:13;;;;;;;1.60;1.50;;;14.10;67.00;;;;;;5088163;28;20874;-81
2022/08/08 04:22:40;;;;;;;1.60;1.10;;;14.00;67.40;;;;;;5074964;28;20626;-79
2022/08/08 04:25:08;;;;;;;1.10;0.93;;;13.80;65.60;;;;;;5087196;28;20625;-81
2022/08/08 04:27:37;;;;;;;0.93;0.93;;;14.00;65.80;;;;;;5075444;28;20704;-81
2022/08/08 04:30:06;;;;;;;1.60;1.37;;;14.10;65.80;;;;;;5079032;28;20624;-81
2022/08/08 04:32:33;;;;;;;1.30;1.20;;;14.40;67.80;;;;;;5076765;28;20640;-81
2022/08/08 04:35:00;;;;;;;1.60;1.50;;;14.10;68.80;;;;;;5086247;28;20629;-81
2022/08/08 04:37:27;;;;;;;1.60;1.43;;;;;;;;;;5097225;28;20617;-82
2022/08/08 04:39:55;;;;;;;1.37;1.20;;;14.40;67.70;;;;;;5092329;28;21136;-82
2022/08/08 04:42:24;;;;;;;2.00;1.53;;;14.30;67.70;;;;;;5092838;28;20663;-82
2022/08/08 04:44:56;;;;;;;0.93;0.93;;;14.40;71.10;;;;;;5097730;28;21238;-82
2022/08/08 04:47:23;;;;;;;1.60;1.50;;;14.20;71.10;;;;;;5090440;28;20640;-82
2022/08/08 04:49:50;;;;;;;1.60;1.13;;;14.20;73.20;;;;;;5089498;28;20643;-82
2022/08/08 04:52:17;;;;;;;6.60;1.93;;;14.40;73.10;;;;;;5087680;28;21133;-83
2022/08/08 04:54:44;;;;;;;1.30;0.97;;;14.40;73.20;;;;;;5086594;28;20617;-81
2022/08/08 04:57:11;;;;;;;1.47;1.37;;;14.40;73.60;;;;;;5086504;28;20628;-82
2022/08/08 04:59:38;;;;;;;2.40;1.70;;;14.30;73.10;;;;;;5087113;28;20622;-82
2022/08/08 05:02:07;;;;;;;1.60;1.50;;;14.20;75.70;;;;;;5086720;28;20602;-83
2022/08/08 05:04:34;;;;;;;3.03;1.20;;;14.30;75.90;;;;;;5076612;28;20622;-82
2022/08/08 05:07:01;;;;;;;1.80;1.67;;;14.50;76.60;;;;;;5078207;28;21158;-82
2022/08/08 05:09:28;;;;;;;1.00;1.00;;;14.50;77.20;;;;;;5078377;28;20629;-82
2022/08/08 05:11:55;;;;;;;1.60;1.47;;;14.60;77.70;;;;;;5078258;28;20625;-82
2022/08/08 05:14:22;;;;;;;1.37;1.00;;;;;;;;;;5075538;28;20625;-82
2022/08/08 05:16:49;;;;;;;1.33;1.20;;;14.60;78.10;;;;;;5090039;28;21277;-81
2022/08/08 05:19:18;;;;;;;1.37;1.27;;;14.80;80.90;;;;;;5095934;28;20685;-82
2022/08/08 05:21:45;;;;;;;1.50;1.40;;;14.80;80.70;;;;;;5090139;28;20936;-82
2022/08/08 05:24:15;;;;;;;1.30;1.20;;;14.80;81.30;;;;;;5082431;28;21403;-82
2022/08/08 05:26:45;;;;;;;1.83;1.73;;;14.90;82.10;;;;;;5082244;28;20642;-82
2022/08/08 05:29:12;;;;;;;1.60;1.50;;;15.00;82.00;;;;;;5076409;28;20955;-82
2022/08/08 05:31:39;;;;;;;2.47;1.83;;;15.10;82.20;;;;;;5083833;28;21170;-82
2022/08/08 05:34:12;;;;;;;3.03;1.73;;;15.20;81.50;;;;;;5073885;28;20694;-82
2022/08/08 05:36:42;;;;;;;1.83;1.70;;;15.50;80.90;;;;;;5086667;28;20609;-81
2022/08/08 05:39:10;;;;;;;6.03;1.27;;;15.50;80.10;;;;;;5077756;28;21022;-82
2022/08/08 05:41:39;;;;;;;1.43;1.33;;;15.60;80.10;;;;;;5061626;28;20690;-82
2022/08/08 05:44:11;;;;;;;1.93;1.63;;;15.60;78.70;;;;;;5082315;28;20785;-81
2022/08/08 05:46:40;;;;;;;1.50;1.37;;;16.00;79.20;;;;;;5082461;28;20671;-82
2022/08/08 05:49:08;;;;;;;1.57;1.30;;;15.90;79.10;;;;;;5077638;28;21361;-82
2022/08/08 05:51:35;;;;;;;1.63;1.53;;;16.00;78.30;;;;;;5074378;28;20625;-82
2022/08/08 05:54:04;;;;;;;2.33;1.90;;;16.10;78.90;;;;;;5075777;28;20744;-82
2022/08/08 05:56:36;;;;;;;1.23;1.13;;;16.20;78.90;;;;;;5074929;28;20668;-82
2022/08/08 05:59:06;;;;;;;1.80;1.70;;;16.50;77.20;;;;;;5068422;28;20658;-82
2022/08/08 06:01:36;;;;;;;1.70;1.37;;;16.50;77.70;;;;;;5068762;28;20728;-82
2022/08/08 06:04:05;;;;;;;2.00;1.77;;;16.70;77.80;;;;;;5076626;28;20664;-82
2022/08/08 06:06:32;;;;;;;1.70;1.40;;;16.70;77.90;;;;;;5085777;28;20706;-83
2022/08/08 06:09:02;;;;;;;1.43;1.33;;;17.00;76.30;;;;;;5087142;28;20660;-82
2022/08/08 06:11:33;;;;;;;1.80;1.70;;;17.10;73.60;;;;;;5077514;28;20652;-82
2022/08/08 06:14:01;;;;;;;1.30;0.90;;;17.20;73.90;;;;;;5067488;28;21333;-82
2022/08/08 06:16:28;;;;;;;1.30;1.20;;;17.50;73.50;;;;;;5067093;28;20629;-82
2022/08/08 06:18:55;;;;;;;2.47;1.57;;;17.70;71.70;;;;;;5074371;28;20705;-81
2022/08/08 06:21:23;;;;;;;2.60;1.93;;;17.70;70.80;;;;;;5075386;28;20649;-82
2022/08/08 06:23:50;;;;;;;1.57;1.47;;;18.10;68.60;;;;;;5085319;28;21199;-82
2022/08/08 06:26:17;;;;;;;1.93;1.87;;;17.90;68.80;;;;;;5072396;28;21131;-82
2022/08/08 06:28:52;;;;;;;1.47;1.37;;;18.10;68.20;;;;;;5075853;28;20652;-83
2022/08/08 06:31:21;;;;;;;1.20;1.10;;;18.30;68.30;;;;;;5078165;28;20735;-82
2022/08/08 06:33:55;;;;;;;1.40;1.30;;;18.40;67.90;;;;;;5071570;28;21016;-81
2022/08/08 06:36:30;;;;;;;1.70;1.60;;;18.50;67.50;;;;;;5066244;28;20628;-82
2022/08/08 06:39:01;;;;;;;1.50;1.40;;;18.80;67.40;;;;;;5067371;28;20674;-83
2022/08/08 06:41:32;;;;;;;2.67;1.60;;;18.60;67.40;;;;;;5074758;28;20652;-81
2022/08/08 06:44:03;;;;;;;2.23;1.73;;;18.70;67.60;;;;;;5077609;28;20640;-82
2022/08/08 06:46:30;;;;;;;1.50;1.40;;;18.90;67.10;;;;;;5090598;28;20674;-83
2022/08/08 06:48:58;;;;;;;2.87;1.70;;;19.30;67.30;;;;;;5084970;28;20657;-82
2022/08/08 06:51:28;;;;;;;2.13;1.60;;;19.10;67.10;;;;;;5080471;28;21195;-82
2022/08/08 06:53:56;;;;;;;2.37;2.00;;;19.20;68.00;;;;;;5073611;28;20617;-81
2022/08/08 06:56:24;;;;;;;1.90;1.70;;;19.00;66.40;;;;;;5089285;28;20644;-82
2022/08/08 06:58:51;;;;;;;1.80;1.70;;;19.40;67.00;;;;;;5090435;28;20720;-81
2022/08/08 07:01:19;;;;;;;2.10;1.53;;;19.50;67.50;;;;;;5079951;28;20640;-83
2022/08/08 07:03:52;;;;;;;1.37;1.27;;;19.70;67.60;;;;;;5085333;28;21229;-81
2022/08/08 07:06:23;;;;;;;1.87;1.60;;;19.90;67.20;;;;;;5085112;28;20622;-82
2022/08/08 07:08:53;;;;;;;1.67;1.57;;;19.90;66.80;;;;;;5080952;28;21728;-81
2022/08/08 07:11:28;;;;;;;1.53;1.43;;;20.00;67.00;;;;;;5073265;28;20709;-83
2022/08/08 07:14:22;;;;;;;1.80;1.70;;;20.10;67.20;;;;;;5078511;28;20620;-85
2022/08/08 07:17:04;;;;;;;1.63;1.50;;;20.20;67.20;;;;;;5076049;28;20640;-82
2022/08/08 07:19:39;;;;;;;1.77;1.67;;;20.30;66.30;;;;;;5086808;28;20644;-84
2022/08/08 07:22:08;;;;;;;2.23;2.03;;;20.50;64.90;;;;;;5079536;28;21259;-82
2022/08/08 07:24:42;;;;;;;1.93;1.83;;;20.50;65.30;;;;;;5078091;28;20620;-82
2022/08/08 07:27:11;;;;;;;1.97;1.83;;;20.70;66.00;;;;;;5083341;28;21021;-83
2022/08/08 07:29:39;;;;;;;1.70;1.57;;;20.80;64.60;;;;;;5075714;28;20669;-83
2022/08/08 07:32:09;;;;;;;2.03;1.63;;;20.90;63.80;;;;;;5081106;28;21037;-83
2022/08/08 07:34:36;;;;;;;1.60;1.50;;;21.00;65.30;;;;;;5074281;28;20653;-81
2022/08/08 07:37:05;;;;;;;2.00;1.83;;;21.10;65.40;;;;;;5075950;28;21043;-84
2022/08/08 07:39:32;;;;;;;1.80;1.70;;;21.40;64.30;;;;;;5079725;28;20625;-82
2022/08/08 07:41:59;;;;;;;2.23;2.10;;;21.30;64.10;;;;;;5083410;28;20627;-82
2022/08/08 07:44:27;;;;;;;1.80;1.70;;;21.60;63.90;;;;;;5084253;28;20732;-83
2022/08/08 07:46:54;;;;;;;1.83;1.73;;;21.40;63.70;;;;;;5081633;28;20995;-83
2022/08/08 07:49:23;;;;;;;2.37;2.07;;;21.60;62.50;;;;;;5086287;28;20660;-82
2022/08/08 07:51:51;;;;;;;2.50;2.10;;;21.60;62.60;;;;;;5070312;28;20617;-83
2022/08/08 07:54:30;;;;;;;2.20;2.00;;;21.80;62.60;;;;;;5070386;28;21268;-82
2022/08/08 07:57:05;;;;;;;2.50;2.30;;;22.00;63.90;;;;;;5071887;28;20778;-82
2022/08/08 07:59:41;;;;;;;2.43;2.23;;;22.10;61.60;;;;;;5084697;28;20741;-83
2022/08/08 08:02:08;;;;;;;2.50;2.30;;;22.20;60.50;;;;;;5074169;28;20741;-82
2022/08/08 08:04:43;;;;;;;2.30;2.10;;;22.40;60.90;;;;;;5070061;28;20227;-83
2022/08/08 08:07:11;;;;;;;2.23;2.03;;;22.50;60.00;;;;;;5072966;28;20643;-83
2022/08/08 08:09:41;;;;;;;1.67;1.57;;;22.60;58.60;;;;;;5082384;28;20768;-83
2022/08/08 08:12:10;;;;;;;2.20;2.10;;;22.70;59.20;;;;;;5078186;28;20652;-82
2022/08/08 08:14:52;;;;;;;2.03;1.93;;;22.80;57.60;;;;;;5084899;28;20624;-82
2022/08/08 08:17:20;;;;;;;2.17;1.70;;;22.90;57.90;;;;;;5085524;28;20624;-82
2022/08/08 08:19:49;;;;;;;2.60;2.40;;;23.00;58.30;;;;;;5085837;28;20733;-84
2022/08/08 08:22:17;;;;;;;2.37;2.17;;;23.00;58.80;;;;;;5079690;28;21248;-84
2022/08/08 08:24:44;;;;;;;1.73;1.63;;;23.00;59.30;;;;;;5076051;28;21233;-83
2022/08/08 08:27:11;;;;;;;2.33;1.93;;;22.90;59.40;;;;;;5076960;28;20608;-84
2022/08/08 08:29:38;;;;;;;2.00;1.90;;;23.20;58.40;;;;;;5089569;28;20751;-83
2022/08/08 08:32:06;;;;;;;2.63;2.43;;;23.30;57.80;;;;;;5071649;28;20633;-83
2022/08/08 08:34:35;;;;;;;3.20;2.40;;;23.40;57.00;;;;;;5070743;28;20657;-83
2022/08/08 08:37:04;;;;;;;2.10;2.00;;;23.50;58.10;;;;;;5082756;28;20633;-84
2022/08/08 08:39:31;;;;;;;2.37;2.20;;;23.60;57.90;;;;;;5075912;28;20624;-83
2022/08/08 08:41:58;;;;;;;2.60;2.40;;;23.70;57.60;;;;;;5082380;28;20685;-80
2022/08/08 08:44:26;;;;;;;1.93;1.83;;;23.80;57.00;;;;;;5088061;28;20632;-84
2022/08/08 08:46:55;;;;;;;1.67;1.57;;;24.00;57.00;;;;;;5088381;28;20629;-84
2022/08/08 08:49:22;;;;;;;2.37;2.17;;;23.80;57.30;;;;;;5086613;28;21285;-84
2022/08/08 08:51:51;;;;;;;2.60;2.40;;;23.70;57.30;;;;;;5086396;28;20662;-83
2022/08/08 08:54:22;;;;;;;2.13;2.03;;;23.90;57.80;;;;;;5072320;28;20625;-82
2022/08/08 08:56:49;;;;;;;2.00;1.90;;;24.00;55.90;;;;;;5067902;28;20676;-83
2022/08/08 08:59:17;;;;;;;2.00;1.80;;;24.40;55.80;;;;;;5071141;28;20664;-83
2022/08/08 09:01:44;;;;;;;2.00;1.80;;;24.30;56.10;;;;;;5087054;28;21657;-83
2022/08/08 09:04:18;;;;;;;2.00;1.90;;;24.40;55.40;;;;;;5087721;28;20637;-81
2022/08/08 09:06:47;;;;;;;1.47;1.43;;;24.60;55.60;;;;;;5083282;28;20992;-82
2022/08/08 09:09:22;;;;;;;1.93;1.83;;;24.40;54.40;;;;;;5068462;28;20704;-82
2022/08/08 09:11:53;;;;;;;2.50;2.30;;;24.60;55.20;;;;;;5077321;28;21042;-82
2022/08/08 09:14:23;;;;;;;2.53;2.10;;;24.60;55.20;;;;;;5076274;28;20671;-82
2022/08/08 09:16:51;;;;;;;1.87;1.77;;;24.40;54.80;;;;;;5075445;28;20734;-84
2022/08/08 09:19:18;;;;;;;2.90;2.07;;;24.60;55.50;;;;;;5075329;28;20610;-84
2022/08/08 09:21:46;;;;;;;2.23;2.10;;;24.60;55.00;;;;;;5077362;28;20602;-82
2022/08/08 09:24:14;;;;;;;2.60;2.40;;;24.80;56.00;;;;;;5083552;28;21256;-82
2022/08/08 09:26:46;;;;;;;1.60;1.50;;;24.70;55.50;;;;;;5078134;28;21211;-83
2022/08/08 09:29:21;;;;;;;1.70;1.60;;;24.80;51.70;;;;;;5073175;28;20913;-84
2022/08/08 09:31:53;;;;;;;2.50;2.30;;;25.00;51.80;;;;;;5083093;28;20630;-84
2022/08/08 09:34:21;;;;;;;1.70;1.60;;;25.20;52.30;;;;;;5076740;28;20621;-82
2022/08/08 09:36:48;;;;;;;1.80;1.70;;;25.40;50.50;;;;;;5087788;28;20609;-83
2022/08/08 09:39:20;;;;;;;1.53;1.43;;;25.60;50.90;;;;;;5075059;28;20882;-84
2022/08/08 09:42:00;;;;;;;1.87;1.73;;;25.90;53.80;;;;;;5084175;28;20716;-83
2022/08/08 09:44:44;;;;;;;2.17;2.07;;;25.90;49.80;;;;;;5072869;28;20617;-83
2022/08/08 09:47:15;;;;;;;2.00;1.90;;;25.90;50.10;;;;;;5085011;28;20644;-80
2022/08/08 09:49:45;;;;;;;1.60;1.50;;;26.40;51.60;;;;;;5078775;28;20763;-84
2022/08/08 09:52:19;;;;;;;1.80;1.70;;;25.90;49.50;;;;;;5073950;28;20630;-83
2022/08/08 09:54:46;;;;;;;2.20;1.60;;;;;;;;;;5072452;28;20644;-85
2022/08/08 09:57:18;;;;;;;1.63;1.53;;;26.10;49.40;;;;;;5074606;28;20645;-84
2022/08/08 09:59:50;;;;;;;1.83;1.60;;;26.10;49.70;;;;;;5072662;28;20619;-86
2022/08/08 10:02:21;;;;;;;1.80;1.70;;;25.80;49.90;;;;;;5074605;28;20628;-83
2022/08/08 10:04:48;;;;;;;2.30;2.20;;;26.10;51.40;;;;;;5070543;28;21100;-83
2022/08/08 10:07:16;;;;;;;1.70;1.60;;;26.50;50.10;;;;;;5070942;28;20620;-83
2022/08/08 10:09:49;;;;;;;2.90;2.70;;;26.30;49.70;;;;;;5087002;28;20656;-84
2022/08/08 10:12:17;;;;;;;2.50;2.27;;;26.10;48.70;;;;;;5069848;28;20626;-82
2022/08/08 10:14:45;;;;;;;1.90;1.80;;;26.20;49.20;;;;;;5069496;28;20647;-83
2022/08/08 10:17:12;;;;;;;1.80;1.70;;;25.90;47.80;;;;;;5082074;28;21064;-83
2022/08/08 10:19:40;;;;;;;2.33;2.23;;;26.20;47.40;;;;;;5086693;28;21078;-82
2022/08/08 10:22:08;;;;;;;1.90;1.80;;;26.30;48.10;;;;;;5069794;28;20730;-83
2022/08/08 10:24:45;;;;;;;1.90;1.80;;;26.50;50.00;;;;;;5072404;28;20629;-84
2022/08/08 10:27:13;;;;;;;1.40;1.40;;;26.80;47.90;;;;;;5086964;28;20727;-83
2022/08/08 10:29:51;;;;;;;1.93;1.83;;;27.30;47.80;;;;;;5067412;28;20657;-83
2022/08/08 10:32:39;;;;;;;1.80;1.70;;;27.40;47.90;;;;;;5066529;28;20662;-82
2022/08/08 10:35:13;;;;;;;1.50;1.40;;;27.10;46.60;;;;;;5080889;28;20633;-85
2022/08/08 10:37:50;;;;;;;1.80;1.70;;;27.10;46.40;;;;;;5086406;28;20625;-83
2022/08/08 10:40:18;;;;;;;1.50;1.40;;;27.10;45.40;;;;;;5085900;28;20636;-83
2022/08/08 10:42:48;;;;;;;1.77;1.67;;;27.20;45.50;;;;;;5083288;28;20720;-84
2022/08/08 10:45:17;;;;;;;1.60;1.50;;;27.40;45.80;;;;;;5085599;28;21198;-82
2022/08/08 10:47:44;;;;;;;1.77;1.67;;;27.40;44.60;;;;;;5086872;28;20632;-84
2022/08/08 10:50:11;;;;;;;1.70;1.60;;;27.40;44.40;;;;;;5078371;28;20750;-84
2022/08/08 10:52:40;;;;;;;1.50;1.40;;;25.60;45.60;;;;;;5069155;28;20661;-83
2022/08/08 10:55:12;;;;;;;1.50;1.40;;;26.50;46.80;;;;;;5067965;28;20606;-83
2022/08/08 10:57:40;;;;;;;2.63;2.43;;;26.60;46.80;;;;;;5071992;28;20628;-83
2022/08/08 11:00:11;;;;;;;2.43;2.33;;;26.60;46.70;;;;;;5068083;28;20614;-84
2022/08/08 11:02:40;;;;;;;2.20;2.00;;;26.70;46.50;;;;;;5078603;28;20638;-84
2022/08/08 11:05:09;;;;;;;1.50;1.40;;;27.10;47.90;;;;;;5066430;28;20625;-83
2022/08/08 11:07:37;;;;;;;2.90;2.20;;;27.10;47.70;;;;;;5080884;28;21191;-84
2022/08/08 11:10:09;;;;;;;1.80;1.70;;;26.80;48.30;;;;;;5086875;28;20725;-83
2022/08/08 11:12:45;;;;;;;2.00;1.90;;;27.20;48.60;;;;;;5084450;28;20637;-83
2022/08/08 11:15:13;;;;;;;1.70;1.60;;;27.20;49.00;;;;;;5066704;28;20679;-84
2022/08/08 11:17:43;;;;;;;1.87;1.77;;;27.50;47.00;;;;;;5066981;28;20629;-83
2022/08/08 11:20:12;;;;;;;1.73;1.63;;;27.30;47.10;;;;;;5066953;28;20683;-85
2022/08/08 11:22:40;;;;;;;1.70;1.60;;;27.30;46.30;;;;;;5080095;28;21020;-83
2022/08/08 11:25:09;;;;;;;1.80;1.70;;;27.60;45.70;;;;;;5086483;28;20648;-82
2022/08/08 11:27:37;;;;;;;1.53;1.43;;;28.00;44.00;;;;;;5075964;28;21409;-82
2022/08/08 11:30:07;;;;;;;1.47;1.40;;;28.60;43.30;;;;;;5076208;28;21276;-83
2022/08/08 11:32:38;;;;;;;1.63;1.30;;;28.60;43.10;;;;;;5069896;28;20629;-85
2022/08/08 11:35:10;;;;;;;1.43;1.37;;;29.00;41.50;;;;;;5084898;28;20613;-84
2022/08/08 11:37:39;;;;;;;1.80;1.70;;;29.30;40.80;;;;;;5075570;28;21032;-83
2022/08/08 11:40:07;;;;;;;2.07;1.90;;;29.60;40.60;;;;;;5080743;28;20641;-83
2022/08/08 11:42:36;;;;;;;2.00;1.90;;;29.90;38.80;;;;;;5078529;28;20650;-84
2022/08/08 11:45:05;;;;;;;1.53;1.43;;;29.80;40.50;;;;;;5087872;28;20713;-85
2022/08/08 11:47:33;;;;;;;1.20;1.10;;;30.00;42.80;;;;;;5088232;28;20643;-82
2022/08/08 11:50:04;;;;;;;2.00;1.90;;;30.30;40.10;;;;;;5090143;28;20739;-82
2022/08/08 11:52:35;;;;;;;1.60;1.50;;;30.70;39.40;;;;;;5079147;28;20721;-84
2022/08/08 11:55:02;;;;;;;1.30;1.30;;;31.00;38.40;;;;;;5069192;28;20770;-83
2022/08/08 11:57:32;;;;;;;1.67;1.57;;;31.40;38.90;;;;;;5088428;28;21028;-83
2022/08/08 12:00:00;;;;;;;1.80;1.70;;;30.80;39.50;;;;;;5078955;28;20624;-86
2022/08/08 12:02:29;;;;;;;1.53;1.43;;;31.70;39.50;;;;;;5079977;28;20683;-88
2022/08/08 12:05:06;;;;;;;1.37;1.37;;;32.40;38.10;;;;;;5080704;28;21028;-85
2022/08/08 12:07:46;;;;;;;1.60;1.50;;;33.50;35.80;;;;;;5080299;28;20613;-88
2022/08/08 12:10:15;;;;;;;1.70;1.60;;;33.40;35.50;;;;;;5072049;28;21141;-85
2022/08/08 12:12:43;;;;;;;1.93;1.80;;;34.50;35.60;;;;;;5071697;28;20625;-87
2022/08/08 12:15:11;;;;;;;1.30;1.30;;;34.50;35.50;;;;;;5072617;28;20617;-87
2022/08/08 12:17:41;;;;;;;1.53;1.43;;;35.30;35.10;;;;;;5072138;28;20659;-86
2022/08/08 12:20:09;;;;;;;1.87;1.77;;;35.10;33.30;;;;;;5071910;28;20716;-86
2022/08/08 12:22:49;;;;;;;1.07;1.07;;;35.20;33.50;;;;;;5071718;28;20617;-88
2022/08/08 12:25:21;;;;;;;1.80;1.70;;;35.50;32.90;;;;;;5078331;28;20628;-87
2022/08/08 12:27:49;;;;;;;1.37;1.27;;;36.50;31.70;;;;;;5084723;28;20689;-87
2022/08/08 12:30:16;;;;;;;1.63;1.60;;;36.90;32.10;;;;;;5081423;28;20648;-86
2022/08/08 12:32:46;;;;;;;1.30;1.23;;;37.90;30.00;;;;;;5080848;28;20255;-90
2022/08/08 12:35:22;;;;;;;1.60;1.50;;;37.90;30.00;;;;;;5082274;28;20202;-88
2022/08/08 12:38:04;;;;;;;1.47;1.37;;;38.20;30.00;;;;;;5078921;28;20198;-86
2022/08/08 12:40:40;;;;;;;1.58;1.48;;;39.00;29.10;;;;;;5081866;28;20213;-86
2022/08/08 12:43:08;;;;;;;2.20;1.70;;;38.80;30.00;;;;;;5082129;28;20255;-86
2022/08/08 12:45:37;;;;;;;1.63;1.52;;;38.60;30.20;;;;;;5080536;28;20666;-88
2022/08/08 12:48:07;;;;;;;1.65;1.55;;;38.70;29.60;;;;;;5083000;28;20183;-85
2022/08/08 12:50:48;;;;;;;1.42;1.42;;;37.30;30.20;;;;;;5069776;28;20217;-86
2022/08/08 12:53:24;;;;;;;1.60;1.50;;;37.60;32.30;;;;;;5068103;28;20202;-88
2022/08/08 12:55:53;;;;;;;1.85;1.75;;;38.50;30.00;;;;;;5070515;28;20204;-85
2022/08/08 12:58:22;;;;;;;1.05;1.05;;;39.00;30.40;;;;;;5078329;28;20200;-87
2022/08/08 13:00:49;;;;;;;1.52;1.52;;;38.00;30.70;;;;;;5076833;28;20302;-85
2022/08/08 13:03:24;;;;;;;1.40;1.40;;;37.40;30.80;;;;;;5077519;28;20190;-87
2022/08/08 13:06:02;;;;;;;1.40;1.40;;;38.30;29.80;;;;;;5067627;28;20191;-87
2022/08/08 13:08:42;;;;;;;1.42;1.30;;;39.20;29.20;;;;;;5078490;28;20255;-88
2022/08/08 13:11:24;;;;;;;1.40;1.40;;;39.60;28.30;;;;;;5077278;28;20787;-87
2022/08/08 13:14:00;;;;;;;1.50;1.50;;;39.70;28.60;;;;;;5075725;28;20234;-87
2022/08/08 13:16:28;;;;;;;1.85;1.75;;;39.80;29.10;;;;;;5076746;28;20716;-87
2022/08/08 13:18:57;;;;;;;1.45;1.35;;;40.00;29.70;;;;;;5074683;28;20230;-87
2022/08/08 13:21:25;;;;;;;1.05;1.05;;;40.70;27.40;;;;;;5077525;28;20244;-86
2022/08/08 13:23:53;;;;;;;1.45;1.35;;;40.80;27.70;;;;;;5077814;28;20203;-87
2022/08/08 13:26:20;;;;;;;1.20;1.20;;;41.10;27.20;;;;;;5078775;28;20292;-86
2022/08/08 13:28:47;;;;;;;1.27;1.27;;;40.80;27.40;;;;;;5080976;28;20246;-86
2022/08/08 13:31:14;;;;;;;1.70;1.60;;;40.70;27.70;;;;;;5078025;28;20300;-85